Terminal Aerodrome Forecast
Issued by NWS Wakefield, VA

Home | Current Version | Previous Version | Text Only | Print | Product List | Glossary On
Versions: 1 2 3 4 5 6 7 8 9 10 11 12 13 14 15 16 17
000
FTUS41 KAKQ 280500
TAFRIC
TAF
KRIC 280531Z 2806/2906 20010KT P6SM SCT080 BKN250
     FM281300 26012KT P6SM SCT250
     FM281700 29016G28KT P6SM FEW070
     FM282300 33010KT P6SM SKC=

USA.gov is the U.S. government's official web portal to all federal, state and local government web resources and services.